sensor_id;sensor_type;location;lat;lon;timestamp;P1;durP1;ratioP1;P2;durP2;ratioP2
35971;SDS011;22052;0.000;0.000;2022-09-03T00:01:52;5.20;;;1.45;;
35971;SDS011;22052;0.000;0.000;2022-09-03T00:04:27;8.23;;;1.50;;
35971;SDS011;22052;0.000;0.000;2022-09-03T00:07:03;7.60;;;1.70;;
35971;SDS011;22052;0.000;0.000;2022-09-03T00:09:50;4.07;;;1.45;;
35971;SDS011;22052;0.000;0.000;2022-09-03T00:12:21;6.93;;;1.60;;
35971;SDS011;22052;0.000;0.000;2022-09-03T00:14:54;5.10;;;1.42;;
35971;SDS011;22052;0.000;0.000;2022-09-03T00:17:24;6.57;;;1.60;;
35971;SDS011;22052;0.000;0.000;2022-09-03T00:22:20;6.30;;;1.40;;
35971;SDS011;22052;0.000;0.000;2022-09-03T00:24:48;4.95;;;1.60;;
35971;SDS011;22052;0.000;0.000;2022-09-03T00:27:16;6.97;;;1.52;;
35971;SDS011;22052;0.000;0.000;2022-09-03T00:32:26;5.85;;;1.50;;
35971;SDS011;22052;0.000;0.000;2022-09-03T00:34:55;5.57;;;1.40;;
35971;SDS011;22052;0.000;0.000;2022-09-03T00:37:23;4.78;;;1.52;;
35971;SDS011;22052;0.000;0.000;2022-09-03T00:39:50;4.63;;;1.40;;
35971;SDS011;22052;0.000;0.000;2022-09-03T00:42:20;4.53;;;1.17;;
35971;SDS011;22052;0.000;0.000;2022-09-03T00:53:11;5.20;;;1.30;;
35971;SDS011;22052;0.000;0.000;2022-09-03T00:58:32;3.65;;;1.05;;
35971;SDS011;22052;0.000;0.000;2022-09-03T01:01:04;4.70;;;1.48;;
35971;SDS011;22052;0.000;0.000;2022-09-03T01:03:42;4.88;;;1.20;;
35971;SDS011;22052;0.000;0.000;2022-09-03T01:06:18;4.75;;;1.33;;
35971;SDS011;22052;0.000;0.000;2022-09-03T01:19:22;6.27;;;1.20;;
35971;SDS011;22052;0.000;0.000;2022-09-03T01:40:02;4.10;;;1.25;;
35971;SDS011;22052;0.000;0.000;2022-09-03T01:42:38;2.60;;;1.08;;
35971;SDS011;22052;0.000;0.000;2022-09-03T01:48:00;3.08;;;1.30;;
35971;SDS011;22052;0.000;0.000;2022-09-03T01:50:37;5.28;;;1.30;;
35971;SDS011;22052;0.000;0.000;2022-09-03T01:53:18;5.82;;;1.45;;
35971;SDS011;22052;0.000;0.000;2022-09-03T01:58:50;3.67;;;1.10;;
35971;SDS011;22052;0.000;0.000;2022-09-03T02:01:29;3.63;;;1.23;;
35971;SDS011;22052;0.000;0.000;2022-09-03T02:03:57;3.97;;;1.27;;
35971;SDS011;22052;0.000;0.000;2022-09-03T02:06:28;2.20;;;1.00;;
35971;SDS011;22052;0.000;0.000;2022-09-03T02:08:55;4.35;;;1.27;;
35971;SDS011;22052;0.000;0.000;2022-09-03T02:11:21;3.15;;;1.15;;
35971;SDS011;22052;0.000;0.000;2022-09-03T02:13:49;2.90;;;1.10;;
35971;SDS011;22052;0.000;0.000;2022-09-03T02:16:18;3.10;;;1.38;;
35971;SDS011;22052;0.000;0.000;2022-09-03T02:18:47;3.45;;;1.13;;
35971;SDS011;22052;0.000;0.000;2022-09-03T02:21:15;2.65;;;1.05;;
35971;SDS011;22052;0.000;0.000;2022-09-03T02:23:44;2.35;;;1.00;;
35971;SDS011;22052;0.000;0.000;2022-09-03T02:26:10;4.57;;;1.45;;
35971;SDS011;22052;0.000;0.000;2022-09-03T02:28:37;2.95;;;1.10;;
35971;SDS011;22052;0.000;0.000;2022-09-03T02:31:03;2.45;;;1.15;;
35971;SDS011;22052;0.000;0.000;2022-09-03T02:33:31;3.90;;;1.15;;
35971;SDS011;22052;0.000;0.000;2022-09-03T02:36:00;2.00;;;1.00;;
35971;SDS011;22052;0.000;0.000;2022-09-03T02:38:28;5.70;;;1.48;;
35971;SDS011;22052;0.000;0.000;2022-09-03T02:40:54;3.72;;;1.00;;
35971;SDS011;22052;0.000;0.000;2022-09-03T02:43:22;3.78;;;1.10;;
35971;SDS011;22052;0.000;0.000;2022-09-03T02:45:52;2.58;;;1.10;;
35971;SDS011;22052;0.000;0.000;2022-09-03T02:48:21;2.58;;;0.80;;
35971;SDS011;22052;0.000;0.000;2022-09-03T02:50:47;2.45;;;1.02;;
35971;SDS011;22052;0.000;0.000;2022-09-03T02:53:14;5.20;;;1.40;;
35971;SDS011;22052;0.000;0.000;2022-09-03T02:55:40;4.28;;;1.30;;
35971;SDS011;22052;0.000;0.000;2022-09-03T02:58:06;3.00;;;1.15;;
35971;SDS011;22052;0.000;0.000;2022-09-03T03:00:33;2.65;;;1.10;;
35971;SDS011;22052;0.000;0.000;2022-09-03T03:03:03;2.78;;;1.10;;
35971;SDS011;22052;0.000;0.000;2022-09-03T03:05:34;1.83;;;0.77;;
35971;SDS011;22052;0.000;0.000;2022-09-03T03:08:01;1.80;;;0.90;;
35971;SDS011;22052;0.000;0.000;2022-09-03T03:10:27;2.58;;;1.00;;
35971;SDS011;22052;0.000;0.000;2022-09-03T03:12:53;3.42;;;1.20;;
35971;SDS011;22052;0.000;0.000;2022-09-03T03:15:19;2.20;;;1.25;;
35971;SDS011;22052;0.000;0.000;2022-09-03T03:17:46;2.40;;;0.90;;
35971;SDS011;22052;0.000;0.000;2022-09-03T03:20:12;2.60;;;1.02;;
35971;SDS011;22052;0.000;0.000;2022-09-03T03:22:38;3.42;;;1.00;;
35971;SDS011;22052;0.000;0.000;2022-09-03T03:25:05;1.80;;;0.80;;
35971;SDS011;22052;0.000;0.000;2022-09-03T03:27:31;2.85;;;0.95;;
35971;SDS011;22052;0.000;0.000;2022-09-03T03:29:57;2.00;;;0.95;;
35971;SDS011;22052;0.000;0.000;2022-09-03T03:32:23;4.53;;;1.00;;
35971;SDS011;22052;0.000;0.000;2022-09-03T03:34:49;2.95;;;0.95;;
35971;SDS011;22052;0.000;0.000;2022-09-03T03:37:16;2.97;;;1.15;;
35971;SDS011;22052;0.000;0.000;2022-09-03T03:39:42;2.17;;;1.23;;
35971;SDS011;22052;0.000;0.000;2022-09-03T03:42:08;1.02;;;0.80;;
35971;SDS011;22052;0.000;0.000;2022-09-03T03:44:34;2.42;;;1.00;;
35971;SDS011;22052;0.000;0.000;2022-09-03T03:47:01;2.95;;;0.90;;
35971;SDS011;22052;0.000;0.000;2022-09-03T03:49:29;2.03;;;1.08;;
35971;SDS011;22052;0.000;0.000;2022-09-03T03:51:56;3.25;;;1.00;;
35971;SDS011;22052;0.000;0.000;2022-09-03T03:54:22;1.98;;;0.98;;
35971;SDS011;22052;0.000;0.000;2022-09-03T03:56:48;1.85;;;0.75;;
35971;SDS011;22052;0.000;0.000;2022-09-03T03:59:14;2.58;;;1.00;;
35971;SDS011;22052;0.000;0.000;2022-09-03T04:01:40;2.28;;;0.90;;
35971;SDS011;22052;0.000;0.000;2022-09-03T04:04:06;1.73;;;0.93;;
35971;SDS011;22052;0.000;0.000;2022-09-03T04:06:33;3.17;;;0.95;;
35971;SDS011;22052;0.000;0.000;2022-09-03T04:08:59;1.60;;;0.80;;
35971;SDS011;22052;0.000;0.000;2022-09-03T04:11:25;3.17;;;1.02;;
35971;SDS011;22052;0.000;0.000;2022-09-03T04:13:51;2.08;;;0.90;;
35971;SDS011;22052;0.000;0.000;2022-09-03T04:16:22;1.80;;;1.00;;
35971;SDS011;22052;0.000;0.000;2022-09-03T04:18:48;1.65;;;0.90;;
35971;SDS011;22052;0.000;0.000;2022-09-03T04:21:16;2.67;;;1.00;;
35971;SDS011;22052;0.000;0.000;2022-09-03T04:23:43;1.70;;;0.90;;
35971;SDS011;22052;0.000;0.000;2022-09-03T04:26:11;2.05;;;0.95;;
35971;SDS011;22052;0.000;0.000;2022-09-03T04:28:37;2.15;;;0.75;;
35971;SDS011;22052;0.000;0.000;2022-09-03T04:31:05;2.95;;;0.82;;
35971;SDS011;22052;0.000;0.000;2022-09-03T04:33:32;1.15;;;0.73;;
35971;SDS011;22052;0.000;0.000;2022-09-03T04:36:05;2.03;;;0.82;;
35971;SDS011;22052;0.000;0.000;2022-09-03T04:38:32;2.28;;;0.85;;
35971;SDS011;22052;0.000;0.000;2022-09-03T04:40:59;1.75;;;0.85;;
35971;SDS011;22052;0.000;0.000;2022-09-03T04:43:26;2.85;;;1.02;;
35971;SDS011;22052;0.000;0.000;2022-09-03T04:45:56;1.23;;;0.70;;
35971;SDS011;22052;0.000;0.000;2022-09-03T04:48:23;4.95;;;1.00;;
35971;SDS011;22052;0.000;0.000;2022-09-03T04:50:49;2.83;;;0.88;;
35971;SDS011;22052;0.000;0.000;2022-09-03T04:53:15;4.13;;;1.30;;
35971;SDS011;22052;0.000;0.000;2022-09-03T04:55:41;2.28;;;0.70;;
35971;SDS011;22052;0.000;0.000;2022-09-03T04:58:07;7.40;;;1.00;;
35971;SDS011;22052;0.000;0.000;2022-09-03T05:00:35;5.07;;;1.05;;
35971;SDS011;22052;0.000;0.000;2022-09-03T05:03:01;7.20;;;1.20;;
35971;SDS011;22052;0.000;0.000;2022-09-03T05:05:29;3.97;;;1.10;;
35971;SDS011;22052;0.000;0.000;2022-09-03T05:07:57;6.03;;;1.08;;
35971;SDS011;22052;0.000;0.000;2022-09-03T05:10:25;4.18;;;1.08;;
35971;SDS011;22052;0.000;0.000;2022-09-03T05:12:58;3.80;;;1.08;;
35971;SDS011;22052;0.000;0.000;2022-09-03T05:17:54;8.13;;;1.20;;
35971;SDS011;22052;0.000;0.000;2022-09-03T05:20:20;3.28;;;1.02;;
35971;SDS011;22052;0.000;0.000;2022-09-03T05:22:47;3.30;;;1.20;;
35971;SDS011;22052;0.000;0.000;2022-09-03T05:25:13;5.03;;;1.20;;
35971;SDS011;22052;0.000;0.000;2022-09-03T05:27:39;5.28;;;1.10;;
35971;SDS011;22052;0.000;0.000;2022-09-03T05:30:06;9.02;;;1.27;;
35971;SDS011;22052;0.000;0.000;2022-09-03T05:32:33;5.10;;;0.85;;
35971;SDS011;22052;0.000;0.000;2022-09-03T05:34:59;4.28;;;1.08;;
35971;SDS011;22052;0.000;0.000;2022-09-03T05:37:25;10.60;;;1.55;;
35971;SDS011;22052;0.000;0.000;2022-09-03T05:39:51;4.63;;;1.45;;
35971;SDS011;22052;0.000;0.000;2022-09-03T05:42:18;5.15;;;1.10;;
35971;SDS011;22052;0.000;0.000;2022-09-03T05:44:45;4.25;;;1.20;;
35971;SDS011;22052;0.000;0.000;2022-09-03T05:47:13;5.90;;;1.40;;
35971;SDS011;22052;0.000;0.000;2022-09-03T05:49:40;3.42;;;0.85;;
35971;SDS011;22052;0.000;0.000;2022-09-03T05:52:06;8.43;;;1.38;;
35971;SDS011;22052;0.000;0.000;2022-09-03T05:54:34;12.38;;;1.70;;
35971;SDS011;22052;0.000;0.000;2022-09-03T05:57:00;5.03;;;1.40;;
35971;SDS011;22052;0.000;0.000;2022-09-03T05:59:26;6.63;;;1.20;;
35971;SDS011;22052;0.000;0.000;2022-09-03T06:01:52;5.65;;;1.30;;
35971;SDS011;22052;0.000;0.000;2022-09-03T06:04:18;5.28;;;1.42;;
35971;SDS011;22052;0.000;0.000;2022-09-03T06:06:46;6.35;;;1.17;;
35971;SDS011;22052;0.000;0.000;2022-09-03T06:09:13;7.85;;;1.42;;
35971;SDS011;22052;0.000;0.000;2022-09-03T06:11:41;6.70;;;1.13;;
35971;SDS011;22052;0.000;0.000;2022-09-03T06:14:08;5.47;;;1.40;;
35971;SDS011;22052;0.000;0.000;2022-09-03T06:16:36;4.95;;;1.10;;
35971;SDS011;22052;0.000;0.000;2022-09-03T06:19:03;4.53;;;1.13;;
35971;SDS011;22052;0.000;0.000;2022-09-03T06:21:34;7.75;;;1.30;;
35971;SDS011;22052;0.000;0.000;2022-09-03T06:24:00;6.20;;;1.30;;
35971;SDS011;22052;0.000;0.000;2022-09-03T06:26:27;6.80;;;1.23;;
35971;SDS011;22052;0.000;0.000;2022-09-03T06:28:54;7.57;;;1.30;;
35971;SDS011;22052;0.000;0.000;2022-09-03T06:31:21;5.53;;;1.23;;
35971;SDS011;22052;0.000;0.000;2022-09-03T06:33:47;6.47;;;1.30;;
35971;SDS011;22052;0.000;0.000;2022-09-03T06:36:15;6.25;;;1.20;;
35971;SDS011;22052;0.000;0.000;2022-09-03T06:38:42;3.65;;;1.00;;
35971;SDS011;22052;0.000;0.000;2022-09-03T06:41:09;7.57;;;1.20;;
35971;SDS011;22052;0.000;0.000;2022-09-03T06:43:37;6.38;;;1.38;;
35971;SDS011;22052;0.000;0.000;2022-09-03T06:46:05;8.23;;;1.40;;
35971;SDS011;22052;0.000;0.000;2022-09-03T06:48:32;4.75;;;1.13;;
35971;SDS011;22052;0.000;0.000;2022-09-03T06:50:59;5.50;;;1.27;;
35971;SDS011;22052;0.000;0.000;2022-09-03T06:53:29;4.70;;;1.48;;
35971;SDS011;22052;0.000;0.000;2022-09-03T06:55:59;6.75;;;1.48;;
35971;SDS011;22052;0.000;0.000;2022-09-03T06:58:32;4.67;;;1.43;;
35971;SDS011;22052;0.000;0.000;2022-09-03T07:01:07;7.25;;;1.20;;
35971;SDS011;22052;0.000;0.000;2022-09-03T07:03:37;5.47;;;1.15;;
35971;SDS011;22052;0.000;0.000;2022-09-03T07:06:07;4.75;;;1.27;;
35971;SDS011;22052;0.000;0.000;2022-09-03T07:08:36;5.03;;;1.08;;
35971;SDS011;22052;0.000;0.000;2022-09-03T07:11:06;4.25;;;1.20;;
35971;SDS011;22052;0.000;0.000;2022-09-03T07:13:34;8.23;;;1.17;;
35971;SDS011;22052;0.000;0.000;2022-09-03T07:16:10;5.05;;;1.40;;
35971;SDS011;22052;0.000;0.000;2022-09-03T07:18:43;6.78;;;1.23;;
35971;SDS011;22052;0.000;0.000;2022-09-03T07:21:14;6.22;;;1.17;;
35971;SDS011;22052;0.000;0.000;2022-09-03T07:23:44;4.95;;;1.25;;
35971;SDS011;22052;0.000;0.000;2022-09-03T07:26:12;4.93;;;1.25;;
35971;SDS011;22052;0.000;0.000;2022-09-03T07:28:52;6.28;;;1.20;;
35971;SDS011;22052;0.000;0.000;2022-09-03T07:31:31;5.53;;;1.00;;
35971;SDS011;22052;0.000;0.000;2022-09-03T07:34:02;4.95;;;1.38;;
35971;SDS011;22052;0.000;0.000;2022-09-03T07:36:43;4.82;;;1.15;;
35971;SDS011;22052;0.000;0.000;2022-09-03T07:39:17;6.45;;;1.42;;
35971;SDS011;22052;0.000;0.000;2022-09-03T07:41:46;3.47;;;1.27;;
35971;SDS011;22052;0.000;0.000;2022-09-03T07:44:15;3.00;;;1.05;;
35971;SDS011;22052;0.000;0.000;2022-09-03T07:46:49;5.78;;;1.58;;
35971;SDS011;22052;0.000;0.000;2022-09-03T07:49:19;9.52;;;1.48;;
35971;SDS011;22052;0.000;0.000;2022-09-03T07:51:49;6.45;;;1.33;;
35971;SDS011;22052;0.000;0.000;2022-09-03T07:54:19;4.25;;;1.15;;
35971;SDS011;22052;0.000;0.000;2022-09-03T07:56:51;9.50;;;1.50;;
35971;SDS011;22052;0.000;0.000;2022-09-03T07:59:21;8.68;;;1.30;;
35971;SDS011;22052;0.000;0.000;2022-09-03T08:01:50;6.00;;;1.45;;
35971;SDS011;22052;0.000;0.000;2022-09-03T08:04:20;7.20;;;1.23;;
35971;SDS011;22052;0.000;0.000;2022-09-03T08:06:49;5.53;;;1.58;;
35971;SDS011;22052;0.000;0.000;2022-09-03T08:09:20;11.07;;;1.90;;
35971;SDS011;22052;0.000;0.000;2022-09-03T08:11:49;3.95;;;1.00;;
35971;SDS011;22052;0.000;0.000;2022-09-03T08:14:21;5.15;;;1.67;;
35971;SDS011;22052;0.000;0.000;2022-09-03T08:16:49;5.97;;;1.30;;
35971;SDS011;22052;0.000;0.000;2022-09-03T08:19:17;7.43;;;1.52;;
35971;SDS011;22052;0.000;0.000;2022-09-03T08:21:44;7.35;;;1.70;;
35971;SDS011;22052;0.000;0.000;2022-09-03T08:24:13;6.95;;;1.27;;
35971;SDS011;22052;0.000;0.000;2022-09-03T08:26:41;8.77;;;1.40;;
35971;SDS011;22052;0.000;0.000;2022-09-03T08:29:09;5.03;;;1.20;;
35971;SDS011;22052;0.000;0.000;2022-09-03T08:31:40;8.32;;;1.60;;
35971;SDS011;22052;0.000;0.000;2022-09-03T08:34:10;4.43;;;1.23;;
35971;SDS011;22052;0.000;0.000;2022-09-03T08:36:39;5.40;;;1.60;;
35971;SDS011;22052;0.000;0.000;2022-09-03T08:39:07;6.35;;;1.05;;
35971;SDS011;22052;0.000;0.000;2022-09-03T08:41:39;9.20;;;1.40;;
35971;SDS011;22052;0.000;0.000;2022-09-03T08:46:59;6.75;;;1.42;;
35971;SDS011;22052;0.000;0.000;2022-09-03T08:52:59;7.28;;;1.27;;
35971;SDS011;22052;0.000;0.000;2022-09-03T08:55:12;5.68;;;1.40;;
35971;SDS011;22052;0.000;0.000;2022-09-03T09:00:53;6.13;;;1.63;;
35971;SDS011;22052;0.000;0.000;2022-09-03T09:06:07;5.80;;;1.55;;
35971;SDS011;22052;0.000;0.000;2022-09-03T09:08:41;10.25;;;1.42;;
35971;SDS011;22052;0.000;0.000;2022-09-03T09:17:13;4.53;;;1.10;;
35971;SDS011;22052;0.000;0.000;2022-09-03T09:22:30;7.40;;;1.20;;
35971;SDS011;22052;0.000;0.000;2022-09-03T09:25:03;6.70;;;1.55;;
35971;SDS011;22052;0.000;0.000;2022-09-03T09:27:33;5.78;;;1.20;;
35971;SDS011;22052;0.000;0.000;2022-09-03T09:30:09;7.72;;;2.08;;
35971;SDS011;22052;0.000;0.000;2022-09-03T09:32:37;5.45;;;1.30;;
35971;SDS011;22052;0.000;0.000;2022-09-03T09:35:08;6.57;;;1.40;;
35971;SDS011;22052;0.000;0.000;2022-09-03T09:37:46;5.60;;;1.30;;
35971;SDS011;22052;0.000;0.000;2022-09-03T09:43:13;5.03;;;1.40;;
35971;SDS011;22052;0.000;0.000;2022-09-03T09:45:44;5.32;;;1.10;;
35971;SDS011;22052;0.000;0.000;2022-09-03T09:48:31;4.35;;;1.17;;
35971;SDS011;22052;0.000;0.000;2022-09-03T09:51:05;7.35;;;1.50;;
35971;SDS011;22052;0.000;0.000;2022-09-03T09:56:03;6.25;;;1.30;;
35971;SDS011;22052;0.000;0.000;2022-09-03T09:58:32;6.88;;;1.38;;
35971;SDS011;22052;0.000;0.000;2022-09-03T10:01:01;6.75;;;1.48;;
35971;SDS011;22052;0.000;0.000;2022-09-03T10:03:31;9.38;;;1.75;;
35971;SDS011;22052;0.000;0.000;2022-09-03T10:06:05;6.93;;;1.30;;
35971;SDS011;22052;0.000;0.000;2022-09-03T10:08:52;7.43;;;1.40;;
35971;SDS011;22052;0.000;0.000;2022-09-03T10:14:31;8.30;;;1.38;;
35971;SDS011;22052;0.000;0.000;2022-09-03T10:17:06;7.97;;;1.30;;
35971;SDS011;22052;0.000;0.000;2022-09-03T10:20:11;4.57;;;1.20;;
35971;SDS011;22052;0.000;0.000;2022-09-03T10:25:50;5.65;;;1.00;;
35971;SDS011;22052;0.000;0.000;2022-09-03T10:28:25;5.78;;;1.20;;
35971;SDS011;22052;0.000;0.000;2022-09-03T10:31:08;7.35;;;1.30;;
35971;SDS011;22052;0.000;0.000;2022-09-03T10:36:27;5.50;;;1.52;;
35971;SDS011;22052;0.000;0.000;2022-09-03T10:39:21;4.20;;;1.30;;
35971;SDS011;22052;0.000;0.000;2022-09-03T10:49:55;4.75;;;1.33;;
35971;SDS011;22052;0.000;0.000;2022-09-03T10:52:31;7.70;;;1.55;;
35971;SDS011;22052;0.000;0.000;2022-09-03T10:55:30;8.02;;;1.45;;
35971;SDS011;22052;0.000;0.000;2022-09-03T11:00:38;6.90;;;1.67;;
35971;SDS011;22052;0.000;0.000;2022-09-03T11:08:22;5.90;;;1.33;;
35971;SDS011;22052;0.000;0.000;2022-09-03T11:11:01;4.97;;;1.40;;
35971;SDS011;22052;0.000;0.000;2022-09-03T11:14:23;6.05;;;1.60;;
35971;SDS011;22052;0.000;0.000;2022-09-03T11:16:25;3.20;;;1.10;;
35971;SDS011;22052;0.000;0.000;2022-09-03T11:33:52;8.77;;;1.33;;
35971;SDS011;22052;0.000;0.000;2022-09-03T11:36:29;3.58;;;1.10;;
35971;SDS011;22052;0.000;0.000;2022-09-03T11:38:57;4.28;;;1.70;;
35971;SDS011;22052;0.000;0.000;2022-09-03T11:41:34;4.55;;;1.15;;
35971;SDS011;22052;0.000;0.000;2022-09-03T11:44:18;8.35;;;1.58;;
35971;SDS011;22052;0.000;0.000;2022-09-03T11:46:56;5.25;;;1.10;;
35971;SDS011;22052;0.000;0.000;2022-09-03T11:49:29;6.57;;;1.27;;
35971;SDS011;22052;0.000;0.000;2022-09-03T11:51:59;5.35;;;1.10;;
35971;SDS011;22052;0.000;0.000;2022-09-03T11:54:43;5.20;;;1.50;;
35971;SDS011;22052;0.000;0.000;2022-09-03T11:57:21;8.30;;;1.40;;
35971;SDS011;22052;0.000;0.000;2022-09-03T11:59:51;6.05;;;1.23;;
35971;SDS011;22052;0.000;0.000;2022-09-03T12:02:23;6.13;;;1.13;;
35971;SDS011;22052;0.000;0.000;2022-09-03T12:13:16;7.43;;;1.40;;
35971;SDS011;22052;0.000;0.000;2022-09-03T12:15:54;3.70;;;1.40;;
35971;SDS011;22052;0.000;0.000;2022-09-03T12:18:30;4.28;;;1.20;;
35971;SDS011;22052;0.000;0.000;2022-09-03T12:21:00;8.32;;;1.48;;
35971;SDS011;22052;0.000;0.000;2022-09-03T12:23:39;3.38;;;1.23;;
35971;SDS011;22052;0.000;0.000;2022-09-03T12:26:20;4.43;;;1.15;;
35971;SDS011;22052;0.000;0.000;2022-09-03T12:28:52;2.58;;;1.00;;
35971;SDS011;22052;0.000;0.000;2022-09-03T12:31:27;6.35;;;1.42;;
35971;SDS011;22052;0.000;0.000;2022-09-03T12:34:07;4.53;;;1.23;;
35971;SDS011;22052;0.000;0.000;2022-09-03T12:36:42;6.75;;;1.25;;
35971;SDS011;22052;0.000;0.000;2022-09-03T12:39:21;4.47;;;1.40;;
35971;SDS011;22052;0.000;0.000;2022-09-03T12:42:06;4.18;;;1.27;;
35971;SDS011;22052;0.000;0.000;2022-09-03T12:44:39;6.05;;;1.27;;
35971;SDS011;22052;0.000;0.000;2022-09-03T12:47:14;6.22;;;1.35;;
35971;SDS011;22052;0.000;0.000;2022-09-03T12:49:45;4.72;;;1.15;;
35971;SDS011;22052;0.000;0.000;2022-09-03T12:52:20;5.30;;;1.30;;
35971;SDS011;22052;0.000;0.000;2022-09-03T12:54:52;3.88;;;1.10;;
35971;SDS011;22052;0.000;0.000;2022-09-03T12:57:32;5.85;;;1.23;;
35971;SDS011;22052;0.000;0.000;2022-09-03T13:00:05;3.33;;;1.27;;
35971;SDS011;22052;0.000;0.000;2022-09-03T13:02:49;4.25;;;1.08;;
35971;SDS011;22052;0.000;0.000;2022-09-03T13:05:19;2.78;;;1.00;;
35971;SDS011;22052;0.000;0.000;2022-09-03T13:07:49;7.32;;;1.70;;
35971;SDS011;22052;0.000;0.000;2022-09-03T13:10:29;3.80;;;1.25;;
35971;SDS011;22052;0.000;0.000;2022-09-03T13:12:59;4.93;;;1.40;;
35971;SDS011;22052;0.000;0.000;2022-09-03T13:15:28;2.88;;;1.00;;
35971;SDS011;22052;0.000;0.000;2022-09-03T13:18:01;2.80;;;1.02;;
35971;SDS011;22052;0.000;0.000;2022-09-03T13:20:34;4.05;;;1.30;;
35971;SDS011;22052;0.000;0.000;2022-09-03T13:25:46;1.98;;;0.90;;
35971;SDS011;22052;0.000;0.000;2022-09-03T13:28:27;4.38;;;1.40;;
35971;SDS011;22052;0.000;0.000;2022-09-03T13:33:46;2.38;;;1.10;;
35971;SDS011;22052;0.000;0.000;2022-09-03T13:36:25;3.42;;;1.30;;
35971;SDS011;22052;0.000;0.000;2022-09-03T13:38:59;4.38;;;1.10;;
35971;SDS011;22052;0.000;0.000;2022-09-03T13:41:32;4.95;;;1.23;;
35971;SDS011;22052;0.000;0.000;2022-09-03T13:46:45;3.28;;;0.98;;
35971;SDS011;22052;0.000;0.000;2022-09-03T13:49:38;2.72;;;1.10;;
35971;SDS011;22052;0.000;0.000;2022-09-03T13:52:27;5.95;;;1.33;;
35971;SDS011;22052;0.000;0.000;2022-09-03T13:55:05;2.33;;;1.02;;
35971;SDS011;22052;0.000;0.000;2022-09-03T14:00:39;3.33;;;1.20;;
35971;SDS011;22052;0.000;0.000;2022-09-03T14:06:08;5.40;;;1.63;;
35971;SDS011;22052;0.000;0.000;2022-09-03T14:11:26;2.17;;;1.08;;
35971;SDS011;22052;0.000;0.000;2022-09-03T14:14:50;2.88;;;1.13;;
35971;SDS011;22052;0.000;0.000;2022-09-03T14:16:55;2.85;;;1.10;;
35971;SDS011;22052;0.000;0.000;2022-09-03T14:19:33;3.25;;;1.50;;
35971;SDS011;22052;0.000;0.000;2022-09-03T14:27:11;3.22;;;1.33;;
35971;SDS011;22052;0.000;0.000;2022-09-03T14:29:48;2.92;;;1.10;;
35971;SDS011;22052;0.000;0.000;2022-09-03T14:32:26;2.95;;;1.10;;
35971;SDS011;22052;0.000;0.000;2022-09-03T14:35:09;2.70;;;1.10;;
35971;SDS011;22052;0.000;0.000;2022-09-03T14:37:49;2.78;;;1.10;;
35971;SDS011;22052;0.000;0.000;2022-09-03T14:40:33;2.50;;;1.08;;
35971;SDS011;22052;0.000;0.000;2022-09-03T14:48:24;2.70;;;1.10;;
35971;SDS011;22052;0.000;0.000;2022-09-03T14:51:10;2.80;;;1.13;;
35971;SDS011;22052;0.000;0.000;2022-09-03T15:01:28;3.03;;;1.20;;
35971;SDS011;22052;0.000;0.000;2022-09-03T15:07:01;2.30;;;1.10;;
35971;SDS011;22052;0.000;0.000;2022-09-03T15:09:41;2.47;;;1.02;;
35971;SDS011;22052;0.000;0.000;2022-09-03T15:14:52;2.35;;;1.08;;
35971;SDS011;22052;0.000;0.000;2022-09-03T15:28:24;2.95;;;1.30;;
35971;SDS011;22052;0.000;0.000;2022-09-03T15:31:09;5.35;;;1.35;;
35971;SDS011;22052;0.000;0.000;2022-09-03T15:34:32;2.03;;;0.95;;
35971;SDS011;22052;0.000;0.000;2022-09-03T15:36:35;1.90;;;1.00;;
35971;SDS011;22052;0.000;0.000;2022-09-03T15:39:16;1.95;;;1.10;;
35971;SDS011;22052;0.000;0.000;2022-09-03T15:41:55;1.98;;;1.00;;
35971;SDS011;22052;0.000;0.000;2022-09-03T15:44:24;2.65;;;1.33;;
35971;SDS011;22052;0.000;0.000;2022-09-03T15:46:59;1.30;;;0.80;;
35971;SDS011;22052;0.000;0.000;2022-09-03T15:52:09;2.80;;;1.02;;
35971;SDS011;22052;0.000;0.000;2022-09-03T15:55:12;1.90;;;1.00;;
35971;SDS011;22052;0.000;0.000;2022-09-03T16:00:59;2.40;;;1.05;;
35971;SDS011;22052;0.000;0.000;2022-09-03T16:06:27;2.58;;;1.00;;
35971;SDS011;22052;0.000;0.000;2022-09-03T16:09:17;1.25;;;0.80;;
35971;SDS011;22052;0.000;0.000;2022-09-03T16:11:59;2.92;;;1.20;;
35971;SDS011;22052;0.000;0.000;2022-09-03T16:17:49;2.22;;;1.10;;
35971;SDS011;22052;0.000;0.000;2022-09-03T16:20:24;4.20;;;1.33;;
35971;SDS011;22052;0.000;0.000;2022-09-03T16:31:46;2.03;;;1.08;;
35971;SDS011;22052;0.000;0.000;2022-09-03T16:42:33;2.58;;;1.23;;
35971;SDS011;22052;0.000;0.000;2022-09-03T16:50:26;3.05;;;1.10;;
35971;SDS011;22052;0.000;0.000;2022-09-03T16:55:53;1.67;;;1.10;;
35971;SDS011;22052;0.000;0.000;2022-09-03T16:58:37;2.67;;;1.15;;
35971;SDS011;22052;0.000;0.000;2022-09-03T17:07:03;1.95;;;0.95;;
35971;SDS011;22052;0.000;0.000;2022-09-03T17:24:26;1.65;;;1.00;;
35971;SDS011;22052;0.000;0.000;2022-09-03T17:54:48;1.70;;;0.95;;
35971;SDS011;22052;0.000;0.000;2022-09-03T17:57:46;2.42;;;0.90;;
35971;SDS011;22052;0.000;0.000;2022-09-03T18:00:26;2.80;;;1.00;;
35971;SDS011;22052;0.000;0.000;2022-09-03T18:06:10;1.92;;;1.08;;
35971;SDS011;22052;0.000;0.000;2022-09-03T18:09:21;2.47;;;0.93;;
35971;SDS011;22052;0.000;0.000;2022-09-03T18:15:06;1.48;;;0.88;;
35971;SDS011;22052;0.000;0.000;2022-09-03T18:17:47;1.48;;;0.88;;
35971;SDS011;22052;0.000;0.000;2022-09-03T18:20:39;2.05;;;1.00;;
35971;SDS011;22052;0.000;0.000;2022-09-03T18:23:43;1.90;;;0.98;;
35971;SDS011;22052;0.000;0.000;2022-09-03T18:26:32;2.85;;;1.10;;
35971;SDS011;22052;0.000;0.000;2022-09-03T18:29:42;1.80;;;0.93;;
35971;SDS011;22052;0.000;0.000;2022-09-03T18:32:38;1.45;;;0.80;;
35971;SDS011;22052;0.000;0.000;2022-09-03T18:35:28;1.60;;;0.88;;
35971;SDS011;22052;0.000;0.000;2022-09-03T18:50:52;2.13;;;1.00;;
35971;SDS011;22052;0.000;0.000;2022-09-03T18:56:45;2.17;;;1.00;;
35971;SDS011;22052;0.000;0.000;2022-09-03T19:08:51;2.22;;;1.00;;
35971;SDS011;22052;0.000;0.000;2022-09-03T19:15:08;1.73;;;1.00;;
35971;SDS011;22052;0.000;0.000;2022-09-03T19:18:06;1.35;;;0.80;;
35971;SDS011;22052;0.000;0.000;2022-09-03T19:24:07;1.98;;;1.00;;
35971;SDS011;22052;0.000;0.000;2022-09-03T19:27:14;2.13;;;1.00;;
35971;SDS011;22052;0.000;0.000;2022-09-03T19:30:07;1.80;;;1.10;;
35971;SDS011;22052;0.000;0.000;2022-09-03T19:36:08;1.98;;;0.90;;
35971;SDS011;22052;0.000;0.000;2022-09-03T19:47:50;3.53;;;1.30;;
35971;SDS011;22052;0.000;0.000;2022-09-03T19:54:06;2.15;;;1.00;;
35971;SDS011;22052;0.000;0.000;2022-09-03T20:00:03;1.13;;;1.00;;
35971;SDS011;22052;0.000;0.000;2022-09-03T20:02:53;1.67;;;1.05;;
35971;SDS011;22052;0.000;0.000;2022-09-03T20:05:40;2.38;;;1.10;;
35971;SDS011;22052;0.000;0.000;2022-09-03T20:08:42;1.58;;;0.88;;
35971;SDS011;22052;0.000;0.000;2022-09-03T20:11:35;1.48;;;0.80;;
35971;SDS011;22052;0.000;0.000;2022-09-03T20:14:09;1.17;;;0.90;;
35971;SDS011;22052;0.000;0.000;2022-09-03T20:16:46;1.27;;;1.00;;
35971;SDS011;22052;0.000;0.000;2022-09-03T20:19:36;1.65;;;0.90;;
35971;SDS011;22052;0.000;0.000;2022-09-03T20:22:11;2.08;;;0.98;;
35971;SDS011;22052;0.000;0.000;2022-09-03T20:27:51;0.90;;;0.90;;
35971;SDS011;22052;0.000;0.000;2022-09-03T20:38:51;1.88;;;1.00;;
35971;SDS011;22052;0.000;0.000;2022-09-03T20:47:04;3.25;;;1.13;;
35971;SDS011;22052;0.000;0.000;2022-09-03T20:55:50;1.70;;;0.90;;
35971;SDS011;22052;0.000;0.000;2022-09-03T21:19:16;1.48;;;1.10;;
35971;SDS011;22052;0.000;0.000;2022-09-03T21:21:58;1.42;;;1.00;;
35971;SDS011;22052;0.000;0.000;2022-09-03T21:27:58;1.38;;;0.80;;
35971;SDS011;22052;0.000;0.000;2022-09-03T21:37:17;1.25;;;0.80;;
35971;SDS011;22052;0.000;0.000;2022-09-03T21:48:55;1.40;;;0.80;;
35971;SDS011;22052;0.000;0.000;2022-09-03T21:54:00;1.10;;;0.90;;
35971;SDS011;22052;0.000;0.000;2022-09-03T22:02:02;1.77;;;0.95;;
35971;SDS011;22052;0.000;0.000;2022-09-03T22:04:36;1.27;;;0.90;;
35971;SDS011;22052;0.000;0.000;2022-09-03T22:12:23;1.05;;;0.80;;
35971;SDS011;22052;0.000;0.000;2022-09-03T22:14:55;1.13;;;0.70;;
35971;SDS011;22052;0.000;0.000;2022-09-03T22:17:33;0.98;;;0.85;;